sensor_id;sensor_type;location;lat;lon;timestamp;P1;durP1;ratioP1;P2;durP2;ratioP2
29634;SDS011;16557;54.762;56.068;2023-04-06T00:00:37;26.15;;;6.62;;
29634;SDS011;16557;54.762;56.068;2023-04-06T00:03:09;15.95;;;6.03;;
29634;SDS011;16557;54.762;56.068;2023-04-06T00:05:38;21.02;;;5.35;;
29634;SDS011;16557;54.762;56.068;2023-04-06T00:08:08;20.00;;;5.80;;
29634;SDS011;16557;54.762;56.068;2023-04-06T00:10:37;22.98;;;5.80;;
29634;SDS011;16557;54.762;56.068;2023-04-06T00:13:06;16.87;;;5.75;;
29634;SDS011;16557;54.762;56.068;2023-04-06T00:15:36;21.50;;;6.22;;
29634;SDS011;16557;54.762;56.068;2023-04-06T00:18:08;26.85;;;5.50;;
29634;SDS011;16557;54.762;56.068;2023-04-06T00:20:37;26.20;;;5.55;;
29634;SDS011;16557;54.762;56.068;2023-04-06T00:23:06;24.57;;;6.10;;
29634;SDS011;16557;54.762;56.068;2023-04-06T00:25:35;26.73;;;5.20;;
29634;SDS011;16557;54.762;56.068;2023-04-06T00:28:05;24.45;;;5.72;;
29634;SDS011;16557;54.762;56.068;2023-04-06T00:30:34;30.37;;;6.85;;
29634;SDS011;16557;54.762;56.068;2023-04-06T00:33:05;22.07;;;6.78;;
29634;SDS011;16557;54.762;56.068;2023-04-06T00:35:34;24.72;;;6.05;;
29634;SDS011;16557;54.762;56.068;2023-04-06T00:38:03;15.35;;;5.80;;
29634;SDS011;16557;54.762;56.068;2023-04-06T00:40:32;26.15;;;6.37;;
29634;SDS011;16557;54.762;56.068;2023-04-06T00:43:02;23.38;;;6.70;;
29634;SDS011;16557;54.762;56.068;2023-04-06T00:45:32;22.22;;;7.67;;
29634;SDS011;16557;54.762;56.068;2023-04-06T00:48:01;26.07;;;6.30;;
29634;SDS011;16557;54.762;56.068;2023-04-06T00:50:30;28.42;;;7.70;;
29634;SDS011;16557;54.762;56.068;2023-04-06T00:53:00;25.92;;;6.72;;
29634;SDS011;16557;54.762;56.068;2023-04-06T00:55:31;24.32;;;7.20;;
29634;SDS011;16557;54.762;56.068;2023-04-06T00:58:00;27.37;;;7.80;;
29634;SDS011;16557;54.762;56.068;2023-04-06T01:00:29;36.50;;;6.17;;
29634;SDS011;16557;54.762;56.068;2023-04-06T01:02:59;26.55;;;7.15;;
29634;SDS011;16557;54.762;56.068;2023-04-06T01:05:28;25.05;;;7.95;;
29634;SDS011;16557;54.762;56.068;2023-04-06T01:07:58;24.02;;;6.37;;
29634;SDS011;16557;54.762;56.068;2023-04-06T01:10:27;43.83;;;28.23;;
29634;SDS011;16557;54.762;56.068;2023-04-06T01:12:57;118.05;;;79.87;;
29634;SDS011;16557;54.762;56.068;2023-04-06T01:15:26;62.62;;;38.63;;
29634;SDS011;16557;54.762;56.068;2023-04-06T01:17:56;58.30;;;27.10;;
29634;SDS011;16557;54.762;56.068;2023-04-06T01:20:25;61.08;;;32.83;;
29634;SDS011;16557;54.762;56.068;2023-04-06T01:22:57;30.02;;;11.63;;
29634;SDS011;16557;54.762;56.068;2023-04-06T01:25:26;28.20;;;8.23;;
29634;SDS011;16557;54.762;56.068;2023-04-06T01:27:56;32.48;;;7.40;;
29634;SDS011;16557;54.762;56.068;2023-04-06T01:30:25;32.38;;;7.55;;
29634;SDS011;16557;54.762;56.068;2023-04-06T01:32:54;27.40;;;7.97;;
29634;SDS011;16557;54.762;56.068;2023-04-06T01:35:25;34.15;;;7.95;;
29634;SDS011;16557;54.762;56.068;2023-04-06T01:37:55;25.75;;;7.10;;
29634;SDS011;16557;54.762;56.068;2023-04-06T01:40:24;21.02;;;5.80;;
29634;SDS011;16557;54.762;56.068;2023-04-06T01:42:53;28.20;;;7.47;;
29634;SDS011;16557;54.762;56.068;2023-04-06T01:45:22;24.77;;;6.05;;
29634;SDS011;16557;54.762;56.068;2023-04-06T01:47:51;16.25;;;6.15;;
29634;SDS011;16557;54.762;56.068;2023-04-06T01:50:20;23.25;;;6.12;;
29634;SDS011;16557;54.762;56.068;2023-04-06T01:52:50;50.35;;;7.58;;
29634;SDS011;16557;54.762;56.068;2023-04-06T01:55:19;34.23;;;6.83;;
29634;SDS011;16557;54.762;56.068;2023-04-06T01:57:48;34.08;;;7.03;;
29634;SDS011;16557;54.762;56.068;2023-04-06T02:00:18;24.00;;;6.08;;
29634;SDS011;16557;54.762;56.068;2023-04-06T02:02:50;24.63;;;7.78;;
29634;SDS011;16557;54.762;56.068;2023-04-06T02:05:19;71.87;;;11.85;;
29634;SDS011;16557;54.762;56.068;2023-04-06T02:07:48;121.47;;;16.32;;
29634;SDS011;16557;54.762;56.068;2023-04-06T02:10:18;39.60;;;8.30;;
29634;SDS011;16557;54.762;56.068;2023-04-06T02:12:48;85.00;;;14.30;;
29634;SDS011;16557;54.762;56.068;2023-04-06T02:15:17;71.47;;;30.70;;
29634;SDS011;16557;54.762;56.068;2023-04-06T02:17:46;60.88;;;28.15;;
29634;SDS011;16557;54.762;56.068;2023-04-06T02:20:16;51.30;;;13.83;;
29634;SDS011;16557;54.762;56.068;2023-04-06T02:22:45;53.80;;;15.93;;
29634;SDS011;16557;54.762;56.068;2023-04-06T02:25:14;29.37;;;9.28;;
29634;SDS011;16557;54.762;56.068;2023-04-06T02:27:44;33.02;;;7.28;;
29634;SDS011;16557;54.762;56.068;2023-04-06T02:30:16;79.45;;;47.13;;
29634;SDS011;16557;54.762;56.068;2023-04-06T02:32:45;38.58;;;15.68;;
29634;SDS011;16557;54.762;56.068;2023-04-06T02:35:14;74.87;;;18.65;;
29634;SDS011;16557;54.762;56.068;2023-04-06T02:37:44;45.08;;;13.60;;
29634;SDS011;16557;54.762;56.068;2023-04-06T02:40:13;95.53;;;16.23;;
29634;SDS011;16557;54.762;56.068;2023-04-06T02:42:43;64.32;;;15.78;;
29634;SDS011;16557;54.762;56.068;2023-04-06T02:45:12;58.40;;;12.70;;
29634;SDS011;16557;54.762;56.068;2023-04-06T02:47:42;55.52;;;18.98;;
29634;SDS011;16557;54.762;56.068;2023-04-06T02:50:11;60.85;;;17.62;;
29634;SDS011;16557;54.762;56.068;2023-04-06T02:52:41;77.32;;;31.55;;
29634;SDS011;16557;54.762;56.068;2023-04-06T02:55:10;78.40;;;29.63;;
29634;SDS011;16557;54.762;56.068;2023-04-06T02:57:39;67.08;;;16.15;;
29634;SDS011;16557;54.762;56.068;2023-04-06T03:00:10;62.88;;;14.03;;
29634;SDS011;16557;54.762;56.068;2023-04-06T03:02:40;61.15;;;15.50;;
29634;SDS011;16557;54.762;56.068;2023-04-06T03:05:09;67.45;;;15.05;;
29634;SDS011;16557;54.762;56.068;2023-04-06T03:07:38;43.80;;;13.98;;
29634;SDS011;16557;54.762;56.068;2023-04-06T03:10:08;48.05;;;11.25;;
29634;SDS011;16557;54.762;56.068;2023-04-06T03:12:38;55.10;;;10.43;;
29634;SDS011;16557;54.762;56.068;2023-04-06T03:15:09;33.58;;;8.50;;
29634;SDS011;16557;54.762;56.068;2023-04-06T03:17:38;43.50;;;8.98;;
29634;SDS011;16557;54.762;56.068;2023-04-06T03:20:08;61.33;;;11.18;;
29634;SDS011;16557;54.762;56.068;2023-04-06T03:22:38;52.45;;;12.05;;
29634;SDS011;16557;54.762;56.068;2023-04-06T03:25:07;66.17;;;11.93;;
29634;SDS011;16557;54.762;56.068;2023-04-06T03:27:36;50.92;;;9.55;;
29634;SDS011;16557;54.762;56.068;2023-04-06T03:30:06;48.10;;;9.20;;
29634;SDS011;16557;54.762;56.068;2023-04-06T03:32:36;83.10;;;13.22;;
29634;SDS011;16557;54.762;56.068;2023-04-06T03:35:05;52.70;;;9.83;;
29634;SDS011;16557;54.762;56.068;2023-04-06T03:37:34;37.63;;;6.70;;
29634;SDS011;16557;54.762;56.068;2023-04-06T03:40:04;25.60;;;5.60;;
29634;SDS011;16557;54.762;56.068;2023-04-06T03:42:34;34.58;;;6.55;;
29634;SDS011;16557;54.762;56.068;2023-04-06T03:45:03;28.87;;;5.62;;
29634;SDS011;16557;54.762;56.068;2023-04-06T03:47:32;53.38;;;8.35;;
29634;SDS011;16557;54.762;56.068;2023-04-06T03:50:02;21.57;;;5.25;;
29634;SDS011;16557;54.762;56.068;2023-04-06T03:52:31;35.33;;;6.60;;
29634;SDS011;16557;54.762;56.068;2023-04-06T03:55:00;32.23;;;14.68;;
29634;SDS011;16557;54.762;56.068;2023-04-06T03:57:30;86.50;;;19.30;;
29634;SDS011;16557;54.762;56.068;2023-04-06T04:00:00;55.78;;;16.62;;
29634;SDS011;16557;54.762;56.068;2023-04-06T04:02:30;41.40;;;14.35;;
29634;SDS011;16557;54.762;56.068;2023-04-06T04:04:59;48.20;;;9.65;;
29634;SDS011;16557;54.762;56.068;2023-04-06T04:07:28;29.00;;;7.28;;
29634;SDS011;16557;54.762;56.068;2023-04-06T04:09:58;27.27;;;5.47;;
29634;SDS011;16557;54.762;56.068;2023-04-06T04:12:27;26.60;;;5.72;;
29634;SDS011;16557;54.762;56.068;2023-04-06T04:14:56;37.48;;;7.75;;
29634;SDS011;16557;54.762;56.068;2023-04-06T04:17:26;58.60;;;8.80;;
29634;SDS011;16557;54.762;56.068;2023-04-06T04:19:55;42.83;;;7.08;;
29634;SDS011;16557;54.762;56.068;2023-04-06T04:22:24;35.43;;;7.00;;
29634;SDS011;16557;54.762;56.068;2023-04-06T04:24:55;71.30;;;10.75;;
29634;SDS011;16557;54.762;56.068;2023-04-06T04:27:24;43.28;;;8.00;;
29634;SDS011;16557;54.762;56.068;2023-04-06T04:29:53;39.60;;;7.05;;
29634;SDS011;16557;54.762;56.068;2023-04-06T04:32:23;32.98;;;6.17;;
29634;SDS011;16557;54.762;56.068;2023-04-06T04:34:54;27.07;;;5.70;;
29634;SDS011;16557;54.762;56.068;2023-04-06T04:37:23;31.85;;;7.12;;
29634;SDS011;16557;54.762;56.068;2023-04-06T04:39:52;58.38;;;8.85;;
29634;SDS011;16557;54.762;56.068;2023-04-06T04:42:22;47.40;;;8.30;;
29634;SDS011;16557;54.762;56.068;2023-04-06T04:44:51;38.92;;;8.33;;
29634;SDS011;16557;54.762;56.068;2023-04-06T04:47:20;52.15;;;8.05;;
29634;SDS011;16557;54.762;56.068;2023-04-06T04:49:49;26.85;;;6.67;;
29634;SDS011;16557;54.762;56.068;2023-04-06T04:52:18;58.40;;;10.10;;
29634;SDS011;16557;54.762;56.068;2023-04-06T04:54:48;52.43;;;9.65;;
29634;SDS011;16557;54.762;56.068;2023-04-06T04:57:17;42.50;;;6.67;;
29634;SDS011;16557;54.762;56.068;2023-04-06T04:59:46;30.17;;;6.90;;
29634;SDS011;16557;54.762;56.068;2023-04-06T05:02:17;35.52;;;8.45;;
29634;SDS011;16557;54.762;56.068;2023-04-06T05:04:46;38.15;;;7.37;;
29634;SDS011;16557;54.762;56.068;2023-04-06T05:07:16;30.92;;;7.37;;
29634;SDS011;16557;54.762;56.068;2023-04-06T05:09:46;25.65;;;6.85;;
29634;SDS011;16557;54.762;56.068;2023-04-06T05:12:15;26.57;;;6.92;;
29634;SDS011;16557;54.762;56.068;2023-04-06T05:14:44;37.05;;;7.30;;
29634;SDS011;16557;54.762;56.068;2023-04-06T05:17:13;31.25;;;7.90;;
29634;SDS011;16557;54.762;56.068;2023-04-06T05:19:43;29.90;;;7.22;;
29634;SDS011;16557;54.762;56.068;2023-04-06T05:22:12;44.55;;;8.60;;
29634;SDS011;16557;54.762;56.068;2023-04-06T05:24:43;24.35;;;6.87;;
29634;SDS011;16557;54.762;56.068;2023-04-06T05:27:13;36.10;;;8.78;;
29634;SDS011;16557;54.762;56.068;2023-04-06T05:29:42;44.15;;;7.90;;
29634;SDS011;16557;54.762;56.068;2023-04-06T05:32:11;34.85;;;8.43;;
29634;SDS011;16557;54.762;56.068;2023-04-06T05:34:40;63.45;;;10.30;;
29634;SDS011;16557;54.762;56.068;2023-04-06T05:37:10;28.38;;;5.97;;
29634;SDS011;16557;54.762;56.068;2023-04-06T05:39:39;27.15;;;5.40;;
29634;SDS011;16557;54.762;56.068;2023-04-06T05:42:08;23.25;;;5.50;;
29634;SDS011;16557;54.762;56.068;2023-04-06T05:44:38;24.60;;;5.92;;
29634;SDS011;16557;54.762;56.068;2023-04-06T05:47:08;26.60;;;6.00;;
29634;SDS011;16557;54.762;56.068;2023-04-06T05:49:37;44.15;;;6.28;;
29634;SDS011;16557;54.762;56.068;2023-04-06T05:52:06;23.77;;;5.05;;
29634;SDS011;16557;54.762;56.068;2023-04-06T05:54:37;33.00;;;5.92;;
29634;SDS011;16557;54.762;56.068;2023-04-06T05:57:07;32.42;;;5.58;;
29634;SDS011;16557;54.762;56.068;2023-04-06T05:59:36;24.45;;;5.20;;
29634;SDS011;16557;54.762;56.068;2023-04-06T06:02:05;40.55;;;5.83;;
29634;SDS011;16557;54.762;56.068;2023-04-06T06:04:34;42.15;;;7.80;;
29634;SDS011;16557;54.762;56.068;2023-04-06T06:07:04;21.37;;;4.05;;
29634;SDS011;16557;54.762;56.068;2023-04-06T06:09:33;18.45;;;4.03;;
29634;SDS011;16557;54.762;56.068;2023-04-06T06:12:02;23.83;;;4.83;;
29634;SDS011;16557;54.762;56.068;2023-04-06T06:14:31;17.30;;;4.10;;
29634;SDS011;16557;54.762;56.068;2023-04-06T06:17:01;19.30;;;3.85;;
29634;SDS011;16557;54.762;56.068;2023-04-06T06:19:30;24.37;;;3.70;;
29634;SDS011;16557;54.762;56.068;2023-04-06T06:21:59;24.80;;;3.80;;
29634;SDS011;16557;54.762;56.068;2023-04-06T06:24:30;52.25;;;6.40;;
29634;SDS011;16557;54.762;56.068;2023-04-06T06:26:59;21.50;;;3.83;;
29634;SDS011;16557;54.762;56.068;2023-04-06T06:29:28;20.85;;;3.80;;
29634;SDS011;16557;54.762;56.068;2023-04-06T06:31:58;36.68;;;5.53;;
29634;SDS011;16557;54.762;56.068;2023-04-06T06:34:27;36.90;;;5.22;;
29634;SDS011;16557;54.762;56.068;2023-04-06T06:36:57;26.27;;;3.80;;
29634;SDS011;16557;54.762;56.068;2023-04-06T06:39:26;58.60;;;5.70;;
29634;SDS011;16557;54.762;56.068;2023-04-06T06:41:55;28.45;;;3.08;;
29634;SDS011;16557;54.762;56.068;2023-04-06T06:44:27;28.47;;;4.17;;
29634;SDS011;16557;54.762;56.068;2023-04-06T06:46:56;33.38;;;4.85;;
29634;SDS011;16557;54.762;56.068;2023-04-06T06:49:25;22.62;;;4.00;;
29634;SDS011;16557;54.762;56.068;2023-04-06T06:51:55;31.37;;;4.10;;
29634;SDS011;16557;54.762;56.068;2023-04-06T06:54:24;19.75;;;3.42;;
29634;SDS011;16557;54.762;56.068;2023-04-06T06:56:53;20.20;;;4.35;;
29634;SDS011;16557;54.762;56.068;2023-04-06T06:59:23;26.00;;;4.22;;
29634;SDS011;16557;54.762;56.068;2023-04-06T07:01:52;39.03;;;5.22;;
29634;SDS011;16557;54.762;56.068;2023-04-06T07:04:21;29.48;;;3.77;;
29634;SDS011;16557;54.762;56.068;2023-04-06T07:06:50;50.05;;;6.08;;
29634;SDS011;16557;54.762;56.068;2023-04-06T07:09:20;41.18;;;4.95;;
29634;SDS011;16557;54.762;56.068;2023-04-06T07:11:49;26.95;;;4.00;;
29634;SDS011;16557;54.762;56.068;2023-04-06T07:14:18;38.92;;;4.70;;
29634;SDS011;16557;54.762;56.068;2023-04-06T07:16:48;38.45;;;5.67;;
29634;SDS011;16557;54.762;56.068;2023-04-06T07:19:18;74.87;;;7.50;;
29634;SDS011;16557;54.762;56.068;2023-04-06T07:21:47;46.95;;;4.97;;
29634;SDS011;16557;54.762;56.068;2023-04-06T07:24:17;40.00;;;5.28;;
29634;SDS011;16557;54.762;56.068;2023-04-06T07:26:46;48.35;;;5.20;;
29634;SDS011;16557;54.762;56.068;2023-04-06T07:29:15;28.23;;;4.00;;
29634;SDS011;16557;54.762;56.068;2023-04-06T07:31:45;45.28;;;5.78;;
29634;SDS011;16557;54.762;56.068;2023-04-06T07:34:15;48.63;;;4.75;;
29634;SDS011;16557;54.762;56.068;2023-04-06T07:36:44;28.75;;;4.25;;
29634;SDS011;16557;54.762;56.068;2023-04-06T07:39:13;44.05;;;4.08;;
29634;SDS011;16557;54.762;56.068;2023-04-06T07:41:43;34.90;;;4.40;;
29634;SDS011;16557;54.762;56.068;2023-04-06T07:44:12;28.52;;;4.42;;
29634;SDS011;16557;54.762;56.068;2023-04-06T07:46:42;40.75;;;4.62;;
29634;SDS011;16557;54.762;56.068;2023-04-06T07:49:11;25.35;;;4.17;;
29634;SDS011;16557;54.762;56.068;2023-04-06T07:51:41;39.03;;;4.08;;
29634;SDS011;16557;54.762;56.068;2023-04-06T07:54:10;24.65;;;3.55;;
29634;SDS011;16557;54.762;56.068;2023-04-06T07:56:39;46.02;;;4.75;;
29634;SDS011;16557;54.762;56.068;2023-04-06T07:59:08;32.90;;;4.47;;
29634;SDS011;16557;54.762;56.068;2023-04-06T08:01:38;26.55;;;4.67;;
29634;SDS011;16557;54.762;56.068;2023-04-06T08:04:07;40.00;;;4.47;;
29634;SDS011;16557;54.762;56.068;2023-04-06T08:06:37;37.33;;;3.72;;
29634;SDS011;16557;54.762;56.068;2023-04-06T08:09:06;19.67;;;3.52;;
29634;SDS011;16557;54.762;56.068;2023-04-06T08:11:35;101.22;;;7.15;;
29634;SDS011;16557;54.762;56.068;2023-04-06T08:14:04;33.02;;;4.58;;
29634;SDS011;16557;54.762;56.068;2023-04-06T08:16:33;58.80;;;6.03;;
29634;SDS011;16557;54.762;56.068;2023-04-06T08:19:03;39.20;;;4.17;;
29634;SDS011;16557;54.762;56.068;2023-04-06T08:21:33;121.22;;;8.50;;
29634;SDS011;16557;54.762;56.068;2023-04-06T08:24:03;21.17;;;3.55;;
29634;SDS011;16557;54.762;56.068;2023-04-06T08:26:33;62.20;;;8.03;;
29634;SDS011;16557;54.762;56.068;2023-04-06T08:29:03;67.92;;;5.17;;
29634;SDS011;16557;54.762;56.068;2023-04-06T08:31:34;54.03;;;5.05;;
29634;SDS011;16557;54.762;56.068;2023-04-06T08:34:04;267.70;;;17.55;;
29634;SDS011;16557;54.762;56.068;2023-04-06T08:36:34;64.17;;;5.80;;
29634;SDS011;16557;54.762;56.068;2023-04-06T08:39:03;72.40;;;6.92;;
29634;SDS011;16557;54.762;56.068;2023-04-06T08:41:32;41.77;;;5.47;;
29634;SDS011;16557;54.762;56.068;2023-04-06T08:44:02;42.88;;;5.15;;
29634;SDS011;16557;54.762;56.068;2023-04-06T08:46:32;54.83;;;5.53;;
29634;SDS011;16557;54.762;56.068;2023-04-06T08:49:02;71.87;;;7.20;;
29634;SDS011;16557;54.762;56.068;2023-04-06T08:51:34;38.42;;;4.28;;
29634;SDS011;16557;54.762;56.068;2023-04-06T08:54:05;38.73;;;4.70;;
29634;SDS011;16557;54.762;56.068;2023-04-06T08:56:37;43.05;;;4.72;;
29634;SDS011;16557;54.762;56.068;2023-04-06T08:59:08;41.77;;;4.17;;
29634;SDS011;16557;54.762;56.068;2023-04-06T09:01:44;32.90;;;4.12;;
29634;SDS011;16557;54.762;56.068;2023-04-06T09:04:09;32.23;;;4.53;;
29634;SDS011;16557;54.762;56.068;2023-04-06T09:06:39;32.63;;;4.50;;
29634;SDS011;16557;54.762;56.068;2023-04-06T09:09:08;43.73;;;4.67;;
29634;SDS011;16557;54.762;56.068;2023-04-06T09:11:46;45.48;;;4.90;;
29634;SDS011;16557;54.762;56.068;2023-04-06T09:14:16;22.82;;;3.58;;
29634;SDS011;16557;54.762;56.068;2023-04-06T09:16:46;26.27;;;3.52;;
29634;SDS011;16557;54.762;56.068;2023-04-06T09:19:15;27.90;;;4.42;;
29634;SDS011;16557;54.762;56.068;2023-04-06T09:21:44;75.30;;;7.28;;
29634;SDS011;16557;54.762;56.068;2023-04-06T09:24:13;113.25;;;7.70;;
29634;SDS011;16557;54.762;56.068;2023-04-06T09:26:45;38.00;;;5.25;;
29634;SDS011;16557;54.762;56.068;2023-04-06T09:29:21;21.82;;;4.50;;
29634;SDS011;16557;54.762;56.068;2023-04-06T09:32:02;31.55;;;5.35;;
29634;SDS011;16557;54.762;56.068;2023-04-06T09:34:31;34.67;;;4.58;;
29634;SDS011;16557;54.762;56.068;2023-04-06T09:37:11;42.40;;;5.30;;
29634;SDS011;16557;54.762;56.068;2023-04-06T09:39:33;32.67;;;4.15;;
29634;SDS011;16557;54.762;56.068;2023-04-06T09:42:02;53.17;;;5.50;;
29634;SDS011;16557;54.762;56.068;2023-04-06T09:44:32;59.73;;;5.33;;
29634;SDS011;16557;54.762;56.068;2023-04-06T09:47:02;107.15;;;9.13;;
29634;SDS011;16557;54.762;56.068;2023-04-06T09:49:33;84.15;;;7.72;;
29634;SDS011;16557;54.762;56.068;2023-04-06T09:52:03;35.40;;;4.97;;
29634;SDS011;16557;54.762;56.068;2023-04-06T09:54:34;49.50;;;5.60;;
29634;SDS011;16557;54.762;56.068;2023-04-06T09:57:07;33.53;;;4.95;;
29634;SDS011;16557;54.762;56.068;2023-04-06T09:59:55;51.85;;;5.78;;
29634;SDS011;16557;54.762;56.068;2023-04-06T10:02:53;43.28;;;5.15;;
29634;SDS011;16557;54.762;56.068;2023-04-06T10:08:11;34.95;;;4.17;;
29634;SDS011;16557;54.762;56.068;2023-04-06T10:10:41;18.20;;;3.75;;
29634;SDS011;16557;54.762;56.068;2023-04-06T10:13:11;39.13;;;4.78;;
29634;SDS011;16557;54.762;56.068;2023-04-06T10:15:41;45.85;;;6.03;;
29634;SDS011;16557;54.762;56.068;2023-04-06T10:18:10;29.35;;;4.62;;
29634;SDS011;16557;54.762;56.068;2023-04-06T10:23:45;24.15;;;3.98;;
29634;SDS011;16557;54.762;56.068;2023-04-06T10:26:22;43.00;;;5.33;;
29634;SDS011;16557;54.762;56.068;2023-04-06T10:28:51;46.18;;;4.58;;
29634;SDS011;16557;54.762;56.068;2023-04-06T10:31:25;25.50;;;3.80;;
29634;SDS011;16557;54.762;56.068;2023-04-06T10:33:56;46.37;;;5.00;;
29634;SDS011;16557;54.762;56.068;2023-04-06T10:36:32;31.17;;;4.40;;
29634;SDS011;16557;54.762;56.068;2023-04-06T10:39:03;47.43;;;7.10;;
29634;SDS011;16557;54.762;56.068;2023-04-06T10:41:33;20.55;;;3.70;;
29634;SDS011;16557;54.762;56.068;2023-04-06T10:44:23;37.83;;;4.58;;
29634;SDS011;16557;54.762;56.068;2023-04-06T10:46:59;40.67;;;5.67;;
29634;SDS011;16557;54.762;56.068;2023-04-06T10:49:24;17.62;;;3.12;;
29634;SDS011;16557;54.762;56.068;2023-04-06T10:51:54;20.15;;;3.67;;
29634;SDS011;16557;54.762;56.068;2023-04-06T10:54:24;36.25;;;3.98;;
29634;SDS011;16557;54.762;56.068;2023-04-06T10:56:54;43.05;;;6.10;;
29634;SDS011;16557;54.762;56.068;2023-04-06T10:59:23;46.42;;;4.72;;
29634;SDS011;16557;54.762;56.068;2023-04-06T11:01:53;32.30;;;4.28;;
29634;SDS011;16557;54.762;56.068;2023-04-06T11:04:23;35.48;;;4.37;;
29634;SDS011;16557;54.762;56.068;2023-04-06T11:06:52;35.10;;;3.92;;
29634;SDS011;16557;54.762;56.068;2023-04-06T11:09:25;27.82;;;4.30;;
29634;SDS011;16557;54.762;56.068;2023-04-06T11:11:56;38.38;;;5.50;;
29634;SDS011;16557;54.762;56.068;2023-04-06T11:14:25;14.60;;;3.37;;
29634;SDS011;16557;54.762;56.068;2023-04-06T11:16:54;40.58;;;4.58;;
29634;SDS011;16557;54.762;56.068;2023-04-06T11:19:23;29.52;;;3.42;;
29634;SDS011;16557;54.762;56.068;2023-04-06T11:21:53;25.17;;;3.67;;
29634;SDS011;16557;54.762;56.068;2023-04-06T11:24:23;24.77;;;3.37;;
29634;SDS011;16557;54.762;56.068;2023-04-06T11:26:56;27.07;;;4.12;;
29634;SDS011;16557;54.762;56.068;2023-04-06T11:29:28;50.88;;;4.10;;
29634;SDS011;16557;54.762;56.068;2023-04-06T11:32:05;33.98;;;3.42;;
29634;SDS011;16557;54.762;56.068;2023-04-06T11:34:32;15.93;;;2.67;;
29634;SDS011;16557;54.762;56.068;2023-04-06T11:37:09;12.05;;;2.92;;
29634;SDS011;16557;54.762;56.068;2023-04-06T11:39:53;16.50;;;2.65;;
29634;SDS011;16557;54.762;56.068;2023-04-06T11:42:24;15.23;;;3.90;;
29634;SDS011;16557;54.762;56.068;2023-04-06T11:44:54;20.37;;;3.67;;
29634;SDS011;16557;54.762;56.068;2023-04-06T11:47:44;19.05;;;2.55;;
29634;SDS011;16557;54.762;56.068;2023-04-06T11:50:06;57.60;;;6.25;;
29634;SDS011;16557;54.762;56.068;2023-04-06T11:52:40;36.90;;;4.37;;
29634;SDS011;16557;54.762;56.068;2023-04-06T11:55:10;26.55;;;4.30;;
29634;SDS011;16557;54.762;56.068;2023-04-06T11:57:41;26.48;;;2.80;;
29634;SDS011;16557;54.762;56.068;2023-04-06T12:00:11;19.37;;;3.02;;
29634;SDS011;16557;54.762;56.068;2023-04-06T12:02:44;22.87;;;2.83;;
29634;SDS011;16557;54.762;56.068;2023-04-06T12:05:15;26.10;;;3.52;;
29634;SDS011;16557;54.762;56.068;2023-04-06T12:07:44;23.85;;;3.30;;
29634;SDS011;16557;54.762;56.068;2023-04-06T12:10:13;28.57;;;3.10;;
29634;SDS011;16557;54.762;56.068;2023-04-06T12:12:43;33.98;;;3.83;;
29634;SDS011;16557;54.762;56.068;2023-04-06T12:15:12;18.50;;;2.90;;
29634;SDS011;16557;54.762;56.068;2023-04-06T12:17:41;25.60;;;3.15;;
29634;SDS011;16557;54.762;56.068;2023-04-06T12:20:13;14.68;;;2.52;;
29634;SDS011;16557;54.762;56.068;2023-04-06T12:22:42;42.17;;;4.65;;
29634;SDS011;16557;54.762;56.068;2023-04-06T12:25:11;37.23;;;4.10;;
29634;SDS011;16557;54.762;56.068;2023-04-06T12:27:40;26.17;;;3.95;;
29634;SDS011;16557;54.762;56.068;2023-04-06T12:30:10;39.27;;;5.20;;
29634;SDS011;16557;54.762;56.068;2023-04-06T12:32:40;30.08;;;4.20;;
29634;SDS011;16557;54.762;56.068;2023-04-06T12:35:09;11.75;;;3.10;;
29634;SDS011;16557;54.762;56.068;2023-04-06T12:37:40;18.95;;;3.40;;
29634;SDS011;16557;54.762;56.068;2023-04-06T12:40:10;53.08;;;4.90;;
29634;SDS011;16557;54.762;56.068;2023-04-06T12:42:40;27.67;;;3.42;;
29634;SDS011;16557;54.762;56.068;2023-04-06T12:45:11;30.17;;;3.77;;
29634;SDS011;16557;54.762;56.068;2023-04-06T12:47:40;27.35;;;2.87;;
29634;SDS011;16557;54.762;56.068;2023-04-06T12:50:10;17.30;;;3.17;;
29634;SDS011;16557;54.762;56.068;2023-04-06T12:52:39;20.17;;;3.10;;
29634;SDS011;16557;54.762;56.068;2023-04-06T12:55:08;18.50;;;2.67;;
29634;SDS011;16557;54.762;56.068;2023-04-06T12:57:38;24.90;;;3.15;;
29634;SDS011;16557;54.762;56.068;2023-04-06T13:00:08;29.67;;;4.08;;
29634;SDS011;16557;54.762;56.068;2023-04-06T13:02:37;27.85;;;4.00;;
29634;SDS011;16557;54.762;56.068;2023-04-06T13:05:09;25.35;;;3.58;;
29634;SDS011;16557;54.762;56.068;2023-04-06T13:07:39;35.68;;;4.83;;
29634;SDS011;16557;54.762;56.068;2023-04-06T13:10:08;15.08;;;2.98;;
29634;SDS011;16557;54.762;56.068;2023-04-06T13:12:38;20.12;;;2.85;;
29634;SDS011;16557;54.762;56.068;2023-04-06T13:15:08;17.98;;;3.52;;
29634;SDS011;16557;54.762;56.068;2023-04-06T13:17:37;51.45;;;4.60;;
29634;SDS011;16557;54.762;56.068;2023-04-06T13:20:09;62.27;;;5.05;;
29634;SDS011;16557;54.762;56.068;2023-04-06T13:22:38;13.88;;;2.70;;
29634;SDS011;16557;54.762;56.068;2023-04-06T13:25:08;24.27;;;3.10;;
29634;SDS011;16557;54.762;56.068;2023-04-06T13:27:38;53.52;;;4.83;;
29634;SDS011;16557;54.762;56.068;2023-04-06T13:30:08;30.35;;;2.98;;
29634;SDS011;16557;54.762;56.068;2023-04-06T13:32:37;50.50;;;4.15;;
29634;SDS011;16557;54.762;56.068;2023-04-06T13:35:07;31.48;;;3.20;;
29634;SDS011;16557;54.762;56.068;2023-04-06T13:37:36;33.98;;;4.83;;
29634;SDS011;16557;54.762;56.068;2023-04-06T13:40:06;28.17;;;4.67;;
29634;SDS011;16557;54.762;56.068;2023-04-06T13:42:36;32.17;;;3.12;;
29634;SDS011;16557;54.762;56.068;2023-04-06T13:45:08;20.88;;;3.12;;
29634;SDS011;16557;54.762;56.068;2023-04-06T13:47:39;26.68;;;3.72;;
29634;SDS011;16557;54.762;56.068;2023-04-06T13:50:08;40.03;;;4.33;;
29634;SDS011;16557;54.762;56.068;2023-04-06T13:52:38;25.32;;;3.60;;
29634;SDS011;16557;54.762;56.068;2023-04-06T13:55:07;28.15;;;3.17;;
29634;SDS011;16557;54.762;56.068;2023-04-06T13:57:38;18.02;;;2.40;;
29634;SDS011;16557;54.762;56.068;2023-04-06T14:00:08;17.87;;;2.42;;
29634;SDS011;16557;54.762;56.068;2023-04-06T14:02:39;25.52;;;3.20;;
29634;SDS011;16557;54.762;56.068;2023-04-06T14:05:09;39.30;;;4.45;;
29634;SDS011;16557;54.762;56.068;2023-04-06T14:07:38;25.80;;;3.90;;
29634;SDS011;16557;54.762;56.068;2023-04-06T14:10:09;38.60;;;4.85;;
29634;SDS011;16557;54.762;56.068;2023-04-06T14:12:45;11.22;;;2.30;;
29634;SDS011;16557;54.762;56.068;2023-04-06T14:15:12;26.00;;;3.13;;
29634;SDS011;16557;54.762;56.068;2023-04-06T14:17:41;17.15;;;3.12;;
29634;SDS011;16557;54.762;56.068;2023-04-06T14:20:11;30.65;;;3.95;;
29634;SDS011;16557;54.762;56.068;2023-04-06T14:22:42;30.57;;;3.58;;
29634;SDS011;16557;54.762;56.068;2023-04-06T14:25:11;22.27;;;2.92;;
29634;SDS011;16557;54.762;56.068;2023-04-06T14:27:40;32.13;;;4.40;;
29634;SDS011;16557;54.762;56.068;2023-04-06T14:30:10;34.13;;;4.85;;
29634;SDS011;16557;54.762;56.068;2023-04-06T14:32:40;29.27;;;3.95;;
29634;SDS011;16557;54.762;56.068;2023-04-06T14:35:09;36.75;;;4.47;;
29634;SDS011;16557;54.762;56.068;2023-04-06T14:37:39;22.02;;;3.77;;
29634;SDS011;16557;54.762;56.068;2023-04-06T14:40:08;20.52;;;3.12;;